world map with ZCO marked

ZCO - Airport

This information may not be accurate or current and is not valid for navigation or flight planning. No warranty of fitness for any purpose is made or implied.

flag of Araucaníaflag of Chile

Donate via PayPal

Additional information is available on the NEW Great Circle Mapper

Location
City:  Temuco, Araucanía, Chile
Near (Alt.):Freire
Name:La Araucanía Airport
ICAO / IATA:SCQP / ZCO

Details
Type:Airport (Aerodrome, Airfield)
Latitude:38°55'33"S (-38.925832)
Longitude:72°39'05"W (-72.651388)
Elevation:321 ft (98 m)
Runways:1
Longest:8005 × 148 ft (2440 × 45 m)

Weather
METAR:SCQP  181200Z VRB01KT CAVOK 12/08 Q1017
TAF:SCQP  181031Z 1812/1912 VRB02KT CAVOK TN05/1812Z TX23/1819Z BECMG 1815/1817 24010KT BECMG 1902/1904 18005KT

Related Locations
Nearby:
Farthest:INC: 12370 mi / 19908 km
Yinchuan [Hedong], 64, CN

Find:

   beyond  
but within

Other Information
Maps:
Links:
Sources:

  


 


Great Circle Mapper   Great Circle Mapper
Great Circle Mapper FAQ   Great Circle Mapper FAQ
  Karl's Home Page
KLS²   KLS² Home
   GC on Facebook
Airlines of the World   Airlines of the World
Donate via PayPal


Copyright © 2004-2017, Karl L. Swartz. All rights reserved.
All trademarks mentioned herein belong to their respective owners.

Please see credits for attribution and copyright information.

Karl Swartz <karl@kls2.com>
  Powered by FreeBSD
Valid HTML 4.01!
Labeled with ICRA
hCard Microformat
Geo Microformat